Time;durP1;ratioP1;P1;durP2;ratioP2;P2;SDS_P1;SDS_P2;PMS_P1;PMS_P2;Temp;Humidity;BMP_temperature;BMP_pressure;BME280_temperature;BME280_humidity;BME280_pressure;Samples;Min_cycle;Max_cycle;Signal;HPM_P1;HPM_P2
2022/06/15 00:02:15;;;;;;;4.13;2.38;;;;;;;17.02;61.78;100806.06;5033059;28;20030;-87
2022/06/15 00:04:40;;;;;;;5.50;2.03;;;;;;;16.98;62.46;100805.53;5032873;28;20395;-86
2022/06/15 00:07:06;;;;;;;4.00;2.50;;;;;;;16.95;62.82;100797.00;5032544;28;20033;-86
2022/06/15 00:09:31;;;;;;;5.65;2.45;;;;;;;16.82;62.25;100799.88;5032657;28;20060;-86
2022/06/15 00:11:57;;;;;;;3.75;2.10;;;;;;;16.86;62.52;100801.28;5032516;28;20468;-86
2022/06/15 00:14:27;;;;;;;3.85;2.40;;;;;;;16.90;62.38;100807.16;5031587;28;20422;-87
2022/06/15 00:16:53;;;;;;;5.10;2.87;;;;;;;16.73;62.44;100800.69;5032715;28;20454;-87
2022/06/15 00:19:19;;;;;;;7.55;2.33;;;;;;;16.56;62.11;100802.97;5032505;28;20060;-87
2022/06/15 00:21:45;;;;;;;6.03;2.53;;;;;;;16.55;62.07;100798.66;5029062;28;20068;-86
2022/06/15 00:24:11;;;;;;;3.67;2.15;;;;;;;16.63;62.00;100792.69;5032271;28;20057;-87
2022/06/15 00:26:38;;;;;;;4.80;2.42;;;;;;;16.64;61.91;100787.22;5032315;28;20052;-88
2022/06/15 00:29:03;;;;;;;3.13;1.92;;;;;;;16.53;61.79;100790.00;5032363;28;20029;-86
2022/06/15 00:31:29;;;;;;;6.65;2.63;;;;;;;16.45;62.69;100789.84;5032352;28;20044;-87
2022/06/15 00:33:54;;;;;;;4.45;1.88;;;;;;;16.48;62.81;100786.91;5032417;28;20104;-87
2022/06/15 00:36:21;;;;;;;4.20;2.15;;;;;;;16.50;62.36;100784.97;5032374;28;20026;-87
2022/06/15 00:38:50;;;;;;;4.13;2.60;;;;;;;16.38;62.55;100793.97;5012519;28;20057;-87
2022/06/15 00:41:20;;;;;;;5.93;2.15;;;;;;;16.14;63.21;100781.03;5012419;28;20050;-87
2022/06/15 00:43:51;;;;;;;3.42;1.98;;;;;;;16.25;62.95;100780.94;5012425;28;20060;-87
2022/06/15 00:46:19;;;;;;;4.53;2.03;;;;;;;16.23;63.46;100780.22;5012302;28;20112;-87
2022/06/15 00:48:48;;;;;;;8.95;2.30;;;;;;;16.28;64.11;100780.69;5027730;28;20564;-87
2022/06/15 00:51:14;;;;;;;7.18;2.50;;;;;;;16.20;64.28;100777.84;5012409;28;20037;-87
2022/06/15 00:53:40;;;;;;;3.88;1.92;;;;;;;16.12;63.66;100778.50;5031933;28;20082;-87
2022/06/15 00:56:08;;;;;;;3.63;1.98;;;;;;;16.16;63.39;100782.56;5031549;28;20108;-87
2022/06/15 00:58:36;;;;;;;5.10;2.70;;;;;;;15.72;63.91;100781.84;5032010;28;20026;-87
2022/06/15 01:01:02;;;;;;;8.48;2.80;;;;;;;15.82;63.71;100780.13;5031874;28;20022;-87
2022/06/15 01:03:28;;;;;;;6.85;2.22;;;;;;;15.79;63.61;100777.72;5030560;28;20539;-86
2022/06/15 01:06:01;;;;;;;4.95;2.50;;;;;;;15.88;64.04;100775.28;5031629;28;20025;-87
2022/06/15 01:08:41;;;;;;;7.63;3.03;;;;;;;16.04;64.12;100775.69;5012107;28;20047;-87
2022/06/15 01:11:21;;;;;;;5.00;2.65;;;;;;;16.04;64.47;100778.31;5012205;28;20506;-86
2022/06/15 01:14:01;;;;;;;6.82;2.47;;;;;;;15.96;64.69;100773.69;5012141;28;20180;-86
2022/06/15 01:16:49;;;;;;;3.53;2.20;;;;;;;16.00;64.33;100771.63;5010935;28;20034;-87
2022/06/15 01:19:20;;;;;;;3.75;2.20;;;;;;;15.95;63.27;100771.16;5012060;28;20112;-86
2022/06/15 01:22:31;;;;;;;4.85;2.53;;;;;;;15.53;63.83;100771.13;5015581;28;20061;-87
2022/06/15 01:25:26;;;;;;;5.28;2.42;;;;;;;15.76;63.23;100766.59;5011973;28;20117;-86
2022/06/15 01:28:22;;;;;;;3.10;2.00;;;;;;;15.81;63.16;100761.72;5012088;28;20522;-87
2022/06/15 01:31:02;;;;;;;6.45;2.55;;;;;;;15.85;64.28;100763.97;5011970;28;20034;-87
2022/06/15 01:33:38;;;;;;;8.13;2.45;;;;;;;15.87;63.52;100761.22;5012072;28;20034;-87
2022/06/15 01:36:13;;;;;;;5.70;2.10;;;;;;;15.86;63.70;100757.72;5012628;28;20064;-87
2022/06/15 01:38:52;;;;;;;3.58;2.03;;;;;;;15.92;63.88;100751.06;5031579;28;20056;-87
2022/06/15 01:41:24;;;;;;;7.63;2.67;;;;;;;15.86;64.20;100759.53;5030298;28;20480;-87
2022/06/15 01:43:57;;;;;;;2.92;1.85;;;;;;;15.80;64.10;100757.41;5031666;28;20041;-87
2022/06/15 01:46:23;;;;;;;2.83;2.00;;;;;;;15.61;64.51;100747.50;5031448;28;20061;-87
2022/06/15 01:48:52;;;;;;;3.47;2.50;;;;;;;15.70;64.17;100757.31;5031648;28;20083;-87
2022/06/15 01:51:24;;;;;;;6.25;2.53;;;;;;;15.59;63.61;100752.06;5028416;28;20053;-87
2022/06/15 01:54:01;;;;;;;6.00;2.50;;;;;;;15.57;64.00;100762.78;5031273;28;20104;-87
2022/06/15 01:56:35;;;;;;;6.88;3.05;;;;;;;15.42;64.25;100762.25;5031594;28;20056;-86
2022/06/15 01:59:19;;;;;;;5.72;2.72;;;;;;;15.60;63.58;100765.19;5031559;28;20529;-87
2022/06/15 02:02:01;;;;;;;3.58;2.45;;;;;;;15.50;64.22;100768.72;5030140;28;20026;-87
2022/06/15 02:04:34;;;;;;;4.75;2.47;;;;;;;15.52;63.80;100764.13;5031541;28;20029;-87
2022/06/15 02:07:18;;;;;;;4.60;2.17;;;;;;;15.52;64.16;100762.34;5025658;28;20491;-87
2022/06/15 02:09:53;;;;;;;3.45;2.17;;;;;;;15.41;64.27;100765.03;5029654;28;20029;-87
2022/06/15 02:12:27;;;;;;;5.22;2.20;;;;;;;15.46;64.88;100766.34;5035569;28;20036;-87
2022/06/15 02:14:56;;;;;;;5.57;2.42;;;;;;;15.44;64.92;100767.41;5035019;28;20033;-87
2022/06/15 02:17:29;;;;;;;4.93;2.60;;;;;;;15.38;64.90;100776.72;5035443;28;20201;-87
2022/06/15 02:19:59;;;;;;;6.32;2.55;;;;;;;15.40;64.42;100769.50;5036699;28;20029;-87
2022/06/15 02:22:30;;;;;;;5.45;2.90;;;;;;;15.39;64.52;100770.44;5037997;28;20014;-87
2022/06/15 02:24:58;;;;;;;5.57;2.50;;;;;;;15.38;65.08;100768.78;5034592;28;20018;-87
2022/06/15 02:27:26;;;;;;;6.75;2.47;;;;;;;15.43;64.87;100776.31;5038036;28;20093;-87
2022/06/15 02:29:56;;;;;;;4.20;2.22;;;;;;;15.45;64.48;100769.94;5045502;28;20068;-87
2022/06/15 02:32:24;;;;;;;5.28;3.17;;;;;;;15.57;64.68;100768.06;5045431;28;20025;-87
2022/06/15 02:34:49;;;;;;;4.18;2.50;;;;;;;15.41;64.15;100770.31;5045946;28;20029;-86
2022/06/15 02:37:14;;;;;;;4.90;2.45;;;;;;;15.32;64.61;100763.97;5045966;28;20032;-87
2022/06/15 02:39:40;;;;;;;5.13;2.25;;;;;;;15.32;63.54;100766.63;5046043;28;20085;-87
2022/06/15 02:42:26;;;;;;;3.53;2.70;;;;;;;15.38;64.05;100771.44;5038273;28;20030;-87
2022/06/15 02:44:56;;;;;;;4.95;2.08;;;;;;;15.21;65.74;100766.69;5024587;28;20026;-87
2022/06/15 02:47:25;;;;;;;6.90;2.17;;;;;;;15.18;64.92;100756.34;5024728;28;20423;-87
2022/06/15 02:49:51;;;;;;;5.40;2.85;;;;;;;15.13;65.69;100753.25;5025922;28;20046;-87
2022/06/15 02:52:20;;;;;;;8.38;2.45;;;;;;;15.12;65.34;100756.84;5026256;28;20025;-88
2022/06/15 02:54:52;;;;;;;7.60;2.75;;;;;;;15.18;65.40;100751.88;5025467;28;20089;-86
2022/06/15 02:57:19;;;;;;;5.68;2.67;;;;;;;15.17;65.31;100752.03;5024612;28;20033;-86
2022/06/15 02:59:45;;;;;;;4.43;2.72;;;;;;;15.14;66.47;100750.44;5035465;28;20029;-87
2022/06/15 03:02:14;;;;;;;4.93;2.63;;;;;;;15.16;66.49;100748.50;5044099;28;20032;-87
2022/06/15 03:04:44;;;;;;;9.48;2.78;;;;;;;15.14;65.64;100749.63;5044072;28;20037;-87
2022/06/15 03:07:11;;;;;;;5.22;2.40;;;;;;;15.10;66.43;100753.47;5043292;28;20037;-87
2022/06/15 03:09:38;;;;;;;6.93;2.72;;;;;;;15.07;66.31;100758.06;5042848;28;20078;-87
2022/06/15 03:12:04;;;;;;;6.40;2.25;;;;;;;15.07;65.99;100751.94;5039220;28;20078;-86
2022/06/15 03:14:30;;;;;;;6.82;2.50;;;;;;;15.07;67.06;100755.41;5035966;28;20112;-87
2022/06/15 03:16:56;;;;;;;5.15;2.50;;;;;;;15.02;66.69;100759.38;5015866;28;20034;-87
2022/06/15 03:19:21;;;;;;;3.92;2.25;;;;;;;15.03;66.76;100753.97;5014410;28;20029;-87
2022/06/15 03:21:47;;;;;;;4.05;2.55;;;;;;;15.04;66.74;100760.94;5014898;28;20025;-87
2022/06/15 03:24:12;;;;;;;5.97;2.10;;;;;;;15.01;66.73;100761.19;5015150;28;20054;-87
2022/06/15 03:26:37;;;;;;;5.40;2.70;;;;;;;14.98;67.28;100772.00;5014770;28;20026;-87
2022/06/15 03:29:04;;;;;;;5.55;2.92;;;;;;;14.97;66.97;100770.34;5014837;28;20084;-87
2022/06/15 03:31:30;;;;;;;3.72;2.47;;;;;;;14.90;66.87;100769.16;5015414;28;20022;-87
2022/06/15 03:33:55;;;;;;;6.72;2.92;;;;;;;14.92;67.12;100769.03;5014858;28;20144;-87
2022/06/15 03:36:21;;;;;;;5.05;2.55;;;;;;;14.94;67.37;100773.22;5014894;28;20022;-87
2022/06/15 03:38:46;;;;;;;7.05;3.45;;;;;;;14.90;67.07;100766.50;5014604;28;20026;-86
2022/06/15 03:41:12;;;;;;;8.70;3.10;;;;;;;14.87;67.12;100766.78;5014292;28;20022;-87
2022/06/15 03:43:38;;;;;;;3.25;2.60;;;;;;;14.87;66.87;100761.47;5014532;28;20029;-87
2022/06/15 03:46:04;;;;;;;4.57;2.83;;;;;;;14.78;67.04;100759.56;5022096;28;20044;-86
2022/06/15 03:48:29;;;;;;;4.10;3.20;;;;;;;14.82;66.73;100761.00;5034223;28;20494;-87
2022/06/15 03:50:55;;;;;;;8.43;3.72;;;;;;;14.62;66.67;100759.94;5032855;28;20053;-86
2022/06/15 03:53:20;;;;;;;8.88;3.05;;;;;;;14.66;67.13;100771.94;5014184;28;20022;-86
2022/06/15 03:55:45;;;;;;;6.13;3.25;;;;;;;14.73;66.73;100772.28;5029322;28;20026;-88
2022/06/15 03:58:18;;;;;;;11.68;2.80;;;;;;;14.82;66.58;100769.75;5013781;28;20034;-87
2022/06/15 04:00:43;;;;;;;8.32;3.20;;;;;;;14.72;67.23;100778.56;5014847;28;20080;-87
2022/06/15 04:03:09;;;;;;;6.32;2.55;;;;;;;14.73;66.89;100775.81;5013534;28;20058;-85
2022/06/15 04:05:41;;;;;;;3.83;2.95;;;;;;;14.84;67.38;100777.56;5013820;28;20029;-86
2022/06/15 04:10:55;;;;;;;10.90;3.85;;;;;;;14.85;67.84;100787.19;5032367;28;20052;-86
2022/06/15 04:13:21;;;;;;;6.40;3.28;;;;;;;14.88;67.77;100786.94;5033177;28;20025;-86
2022/06/15 04:15:47;;;;;;;5.80;3.22;;;;;;;14.90;67.74;100785.00;5024058;28;20045;-86
2022/06/15 04:18:12;;;;;;;5.50;3.13;;;;;;;14.95;67.83;100787.28;5013384;28;20439;-88
2022/06/15 04:20:40;;;;;;;6.80;3.92;;;;;;;15.02;68.06;100791.94;5014332;28;20387;-87
2022/06/15 04:23:10;;;;;;;12.82;3.97;;;;;;;14.93;67.88;100790.06;5013429;28;20034;-87
2022/06/15 04:25:42;;;;;;;7.55;3.63;;;;;;;15.08;68.23;100787.97;5013342;28;20471;-86
2022/06/15 04:28:10;;;;;;;10.95;3.75;;;;;;;15.02;67.12;100789.31;5013380;28;20384;-87
2022/06/15 04:30:36;;;;;;;5.30;3.80;;;;;;;14.92;67.49;100782.25;5012505;28;20021;-87
2022/06/15 04:33:02;;;;;;;8.00;4.18;;;;;;;14.96;67.88;100783.69;5011573;28;20164;-87
2022/06/15 04:35:28;;;;;;;6.43;3.67;;;;;;;15.03;67.57;100798.94;5013238;28;20034;-87
2022/06/15 04:37:54;;;;;;;8.65;3.78;;;;;;;14.98;67.19;100795.81;5030350;28;20040;-87
2022/06/15 04:40:20;;;;;;;6.30;3.33;;;;;;;15.00;67.58;100799.16;5031558;28;20429;-87
2022/06/15 04:42:45;;;;;;;5.45;3.75;;;;;;;15.01;67.58;100802.69;5032553;28;20494;-87
2022/06/15 04:45:12;;;;;;;4.63;3.25;;;;;;;15.07;67.42;100805.66;5032670;28;20476;-87
2022/06/15 04:47:38;;;;;;;6.63;2.78;;;;;;;15.08;67.24;100809.97;5018629;28;20495;-87
2022/06/15 04:50:05;;;;;;;5.90;2.60;;;;;;;15.21;67.56;100804.53;5012469;28;20033;-87
2022/06/15 04:52:31;;;;;;;7.45;3.38;;;;;;;15.19;67.74;100797.69;5012615;28;20041;-87
2022/06/15 04:54:57;;;;;;;4.47;2.90;;;;;;;15.26;67.52;100793.56;5012729;28;20026;-88
2022/06/15 04:57:22;;;;;;;7.65;3.40;;;;;;;15.18;66.91;100796.84;5011826;28;20095;-87
2022/06/15 04:59:47;;;;;;;9.70;3.22;;;;;;;15.17;66.96;100797.00;5012911;28;20105;-87
2022/06/15 05:02:13;;;;;;;5.13;3.03;;;;;;;15.21;67.02;100793.13;5023729;28;20463;-87
2022/06/15 05:04:38;;;;;;;4.70;3.15;;;;;;;15.23;66.48;100791.19;5032515;28;20036;-86
2022/06/15 05:07:04;;;;;;;3.75;3.00;;;;;;;15.20;67.06;100802.00;5032352;28;20025;-87
2022/06/15 05:09:29;;;;;;;6.03;3.60;;;;;;;15.27;66.03;100800.56;5032214;28;20501;-87
2022/06/15 05:11:54;;;;;;;4.80;3.35;;;;;;;15.26;66.47;100804.16;5032020;28;20087;-86
2022/06/15 05:14:20;;;;;;;6.45;3.33;;;;;;;15.30;67.09;100800.28;5030899;28;20068;-87
2022/06/15 05:16:46;;;;;;;4.88;2.92;;;;;;;15.40;66.59;100795.09;5022147;28;20121;-87
2022/06/15 05:19:13;;;;;;;8.05;4.10;;;;;;;15.24;66.89;100795.50;5012278;28;20033;-87
2022/06/15 05:21:43;;;;;;;7.75;3.45;;;;;;;15.51;66.63;100794.22;5012289;28;20033;-87
2022/06/15 05:24:10;;;;;;;5.22;3.08;;;;;;;15.52;66.85;100801.19;5012140;28;20025;-86
2022/06/15 05:26:35;;;;;;;4.47;3.50;;;;;;;15.54;66.76;100808.06;5012371;28;20503;-86
2022/06/15 05:29:00;;;;;;;9.13;4.32;;;;;;;15.46;67.00;100800.75;5012343;28;20030;-86
2022/06/15 05:31:26;;;;;;;5.53;3.80;;;;;;;15.59;66.94;100803.19;5013261;28;20057;-87
2022/06/15 05:33:54;;;;;;;5.88;3.88;;;;;;;15.77;66.79;100803.50;5025078;28;20124;-88
2022/06/15 05:36:26;;;;;;;5.88;3.05;;;;;;;15.86;66.81;100799.25;5031735;28;20041;-87
2022/06/15 05:38:51;;;;;;;8.73;3.42;;;;;;;15.88;66.90;100799.97;5032128;28;20022;-88
2022/06/15 05:41:17;;;;;;;5.63;3.35;;;;;;;15.95;66.73;100808.22;5032496;28;20029;-85
2022/06/15 05:43:52;;;;;;;9.68;4.00;;;;;;;16.04;67.05;100802.16;5035503;28;20520;-87
2022/06/15 05:46:27;;;;;;;8.05;3.90;;;;;;;16.24;66.70;100803.09;5035209;28;20037;-86
2022/06/15 05:48:56;;;;;;;4.60;3.75;;;;;;;16.31;66.76;100808.72;5034761;28;20032;-87
2022/06/15 05:51:22;;;;;;;8.27;4.55;;;;;;;16.35;66.73;100804.81;5016980;28;20440;-87
2022/06/15 05:53:48;;;;;;;9.63;4.45;;;;;;;16.42;66.72;100806.81;5016772;28;20033;-88
2022/06/15 05:56:14;;;;;;;5.72;3.40;;;;;;;16.56;66.52;100802.97;5034611;28;20025;-86
2022/06/15 05:58:39;;;;;;;8.98;4.15;;;;;;;16.66;66.47;100809.16;5035214;28;20018;-87
2022/06/15 06:01:12;;;;;;;6.47;4.47;;;;;;;16.96;66.40;100802.19;5034375;28;20563;-86
2022/06/15 06:03:38;;;;;;;11.45;5.32;;;;;;;17.09;66.21;100798.44;5034663;28;20037;-86
2022/06/15 06:06:04;;;;;;;8.13;4.57;;;;;;;17.37;65.82;100794.94;5035284;28;20079;-87
2022/06/15 06:08:31;;;;;;;7.78;3.90;;;;;;;17.58;65.77;100794.00;5026199;28;20033;-87
2022/06/15 06:10:56;;;;;;;6.82;3.80;;;;;;;17.78;64.94;100795.66;5034422;28;20028;-88
2022/06/15 06:13:22;;;;;;;7.00;4.38;;;;;;;18.00;64.81;100799.00;5019251;28;20538;-88
2022/06/15 06:15:47;;;;;;;8.20;4.35;;;;;;;18.31;64.37;100801.47;5030274;28;20088;-88
2022/06/15 06:18:12;;;;;;;12.63;4.35;;;;;;;18.61;62.64;100803.00;5033642;28;20034;-88
2022/06/15 06:20:39;;;;;;;9.50;3.92;;;;;;;18.88;62.14;100796.91;5035035;28;20021;-88
2022/06/15 06:23:04;;;;;;;8.23;4.18;;;;;;;19.19;61.32;100802.72;5034705;28;20026;-86
2022/06/15 06:25:30;;;;;;;11.82;4.68;;;;;;;19.61;60.28;100803.94;5034874;28;20029;-86
2022/06/15 06:27:55;;;;;;;6.63;3.53;;;;;;;19.93;59.10;100803.38;5033956;28;20048;-88
2022/06/15 06:30:21;;;;;;;9.00;3.60;;;;;;;20.74;56.92;100806.72;5032533;28;20052;-86
2022/06/15 06:32:48;;;;;;;9.20;3.88;;;;;;;22.82;51.55;100805.50;5025995;28;20049;-85
2022/06/15 06:35:13;;;;;;;7.13;3.33;;;;;;;23.96;49.18;100803.91;5014977;28;20034;-86
2022/06/15 06:37:39;;;;;;;6.80;3.13;;;;;;;25.37;45.87;100803.91;5014688;28;20026;-86
2022/06/15 06:40:05;;;;;;;7.53;3.03;;;;;;;24.67;46.91;100806.19;5014789;28;20492;-86
2022/06/15 06:42:30;;;;;;;7.43;3.00;;;;;;;25.17;45.76;100807.19;5014712;28;20121;-86
2022/06/15 06:44:56;;;;;;;12.20;4.07;;;;;;;28.29;39.81;100806.13;5022367;28;20315;-85
2022/06/15 06:47:21;;;;;;;7.68;3.05;;;;;;;30.07;36.80;100792.84;5030172;28;20065;-86
2022/06/15 06:49:47;;;;;;;5.53;2.85;;;;;;;33.50;31.66;100767.56;5034431;28;20490;-86
2022/06/15 06:52:12;;;;;;;6.35;2.40;;;;;;;35.41;28.78;100746.97;5032520;28;20021;-86
2022/06/15 06:54:37;;;;;;;7.93;2.17;;;;;;;36.55;27.04;100747.34;5032663;28;20037;-86
2022/06/15 06:57:03;;;;;;;15.25;2.40;;;;;;;38.45;24.70;100736.19;5030374;28;20526;-86
2022/06/15 06:59:29;;;;;;;5.30;1.85;;;;;;;39.26;23.46;100737.56;5030659;28;20534;-85
2022/06/15 07:01:55;;;;;;;7.82;2.15;;;;;;;40.36;22.19;100777.38;5030082;28;20108;-84
2022/06/15 07:04:21;;;;;;;8.27;2.30;;;;;;;38.88;23.60;100802.34;5029747;28;20044;-85
2022/06/15 07:06:46;;;;;;;6.40;1.83;;;;;;;39.13;23.26;100812.38;5028952;28;20033;-84
2022/06/15 07:09:12;;;;;;;6.18;1.88;;;;;;;41.26;21.65;100767.25;5028729;28;20052;-85
2022/06/15 07:11:42;;;;;;;3.70;1.80;;;;;;;42.78;20.07;100703.72;5018966;28;20080;-85
2022/06/15 07:14:07;;;;;;;6.55;2.13;;;;;;;42.76;19.55;100702.41;5024560;28;20029;-86
2022/06/15 07:16:33;;;;;;;4.82;1.63;;;;;;;41.21;20.98;100701.22;5028166;28;20507;-86
2022/06/15 07:18:58;;;;;;;4.60;1.60;;;;;;;42.80;19.84;100686.84;5035446;28;20044;-85
2022/06/15 07:21:28;;;;;;;5.65;1.80;;;;;;;44.01;18.99;100766.00;5023575;28;20038;-86
2022/06/15 07:23:56;;;;;;;8.20;2.05;;;;;;;44.20;18.57;100820.28;5022353;28;20045;-87
2022/06/15 07:26:31;;;;;;;5.22;1.73;;;;;;;43.99;18.71;100818.06;5029469;28;20032;-86
2022/06/15 07:28:57;;;;;;;3.33;1.55;;;;;;;44.69;18.27;100677.84;5017787;28;20555;-87
2022/06/15 07:31:31;;;;;;;5.03;1.70;;;;;;;45.24;17.50;100678.19;5013594;28;20105;-85
2022/06/15 07:33:56;;;;;;;7.65;1.80;;;;;;;44.80;17.89;100663.66;5015747;28;20105;-86
2022/06/15 07:36:23;;;;;;;7.18;1.48;;;;;;;45.43;18.32;100759.03;5032567;28;20113;-85
2022/06/15 07:38:50;;;;;;;4.57;2.10;;;;;;;45.50;17.47;100812.03;5032848;28;20117;-84
2022/06/15 07:41:16;;;;;;;7.40;1.83;;;;;;;45.30;18.34;100796.91;5032632;28;20031;-86
2022/06/15 07:43:42;;;;;;;5.32;2.20;;;;;;;45.73;17.43;100809.03;5032889;28;20029;-85
2022/06/15 07:46:08;;;;;;;5.32;1.88;;;;;;;45.63;17.30;100695.66;5033510;28;20021;-85
2022/06/15 07:51:26;;;;;;;4.95;1.83;;;;;;;45.43;17.65;100752.69;5033581;28;20120;-85
2022/06/15 07:53:51;;;;;;;4.50;1.70;;;;;;;46.10;16.70;100796.28;5032075;28;20116;-85
2022/06/15 07:56:17;;;;;;;3.60;1.42;;;;;;;45.82;16.63;100732.13;5033248;28;20060;-85
2022/06/15 07:58:43;;;;;;;5.13;1.92;;;;;;;46.19;15.73;100793.44;5015487;28;20036;-85
2022/06/15 08:01:08;;;;;;;7.60;2.03;;;;;;;45.77;16.53;100786.97;5013313;28;20018;-85
2022/06/15 08:03:34;;;;;;;7.75;2.75;;;;;;;46.22;16.66;100740.06;5013146;28;20452;-85
2022/06/15 08:05:59;;;;;;;9.27;1.65;;;;;;;46.86;16.10;100800.00;5012999;28;20036;-86
2022/06/15 08:08:25;;;;;;;8.05;2.22;;;;;;;46.85;16.62;100792.84;5012158;28;20018;-86
2022/06/15 08:10:51;;;;;;;6.07;1.48;;;;;;;46.53;15.95;100746.34;5013062;28;20096;-86
2022/06/15 08:13:17;;;;;;;3.65;1.27;;;;;;;46.82;15.44;100799.06;5026909;28;20124;-86
2022/06/15 08:15:45;;;;;;;6.45;1.65;;;;;;;46.88;15.96;100792.13;5032750;28;20037;-85
2022/06/15 08:18:15;;;;;;;9.50;2.15;;;;;;;46.85;15.63;100792.03;5032447;28;20021;-85
2022/06/15 08:21:05;;;;;;;5.50;1.63;;;;;;;47.05;14.91;100804.25;5032754;28;20057;-86
2022/06/15 08:23:34;;;;;;;9.80;1.70;;;;;;;46.33;16.41;100797.94;5021107;28;20042;-86
2022/06/15 08:26:06;;;;;;;7.00;1.30;;;;;;;45.33;15.65;100799.03;5011163;28;20267;-86
2022/06/15 08:28:36;;;;;;;5.05;1.67;;;;;;;44.90;16.18;100808.19;5028061;28;20411;-86
2022/06/15 08:31:02;;;;;;;6.53;1.35;;;;;;;46.13;14.73;100821.75;5012679;28;20040;-86
2022/06/15 08:33:28;;;;;;;3.40;1.02;;;;;;;45.95;15.65;100821.00;5012410;28;20026;-86
2022/06/15 08:35:53;;;;;;;5.32;1.67;;;;;;;45.86;15.73;100826.59;5012866;28;20113;-86
2022/06/15 08:38:21;;;;;;;5.00;1.70;;;;;;;43.64;16.59;100828.16;5019522;28;20418;-86
2022/06/15 08:40:54;;;;;;;5.63;1.45;;;;;;;42.52;18.03;100813.13;5032371;28;20026;-86
2022/06/15 08:43:29;;;;;;;5.20;1.55;;;;;;;43.06;18.01;100827.91;5031285;28;20021;-86
2022/06/15 08:46:00;;;;;;;5.50;1.27;;;;;;;44.33;15.95;100824.88;5032133;28;20029;-86
2022/06/15 08:48:48;;;;;;;5.40;1.23;;;;;;;46.01;15.50;100826.00;5040151;28;20025;-86
2022/06/15 08:51:41;;;;;;;4.72;1.38;;;;;;;44.64;15.26;100823.97;5026405;28;20084;-86
2022/06/15 08:54:17;;;;;;;3.33;1.30;;;;;;;42.70;16.74;100828.72;5026555;28;20041;-86
2022/06/15 08:56:51;;;;;;;5.15;1.23;;;;;;;43.53;16.65;100824.84;5028645;28;20033;-85
2022/06/15 08:59:35;;;;;;;9.15;1.67;;;;;;;43.01;17.24;100824.47;5024886;28;20034;-85
2022/06/15 09:02:12;;;;;;;4.90;1.55;;;;;;;42.08;18.13;100815.38;5026284;28;20022;-88
2022/06/15 09:05:02;;;;;;;4.38;1.10;;;;;;;43.86;16.91;100813.47;5028462;28;20454;-87
2022/06/15 09:07:45;;;;;;;4.17;1.40;;;;;;;43.93;16.65;100811.06;5023086;28;20375;-87
2022/06/15 09:10:22;;;;;;;2.92;1.00;;;;;;;44.14;17.22;100812.13;5030824;28;20030;-87
2022/06/15 09:12:55;;;;;;;4.15;1.40;;;;;;;43.92;17.05;100806.66;5028832;28;20021;-86
2022/06/15 09:15:45;;;;;;;3.85;1.20;;;;;;;42.27;18.36;100806.19;5030808;28;20109;-86
2022/06/15 09:18:29;;;;;;;5.30;1.45;;;;;;;41.13;19.68;100810.13;5031177;28;20030;-86
2022/06/15 09:21:19;;;;;;;5.78;1.83;;;;;;;42.75;17.57;100802.94;5031200;28;20088;-86
2022/06/15 09:24:07;;;;;;;5.68;1.60;;;;;;;42.67;17.86;100807.25;5021250;28;20040;-86
2022/06/15 09:26:42;;;;;;;6.00;2.10;;;;;;;40.48;19.96;100810.78;5034272;28;20538;-88
2022/06/15 09:29:25;;;;;;;5.13;1.80;;;;;;;42.06;18.38;100805.78;5011581;28;20157;-88
2022/06/15 09:32:11;;;;;;;5.07;1.17;;;;;;;42.36;18.55;100809.84;5011947;28;20480;-88
2022/06/15 09:34:40;;;;;;;5.00;1.20;;;;;;;40.68;19.33;100811.63;5022690;28;20049;-85
2022/06/15 09:37:11;;;;;;;7.40;2.13;;;;;;;39.60;20.53;100804.59;5029810;28;20101;-86
2022/06/15 09:39:37;;;;;;;5.68;1.90;;;;;;;36.80;24.65;100811.44;5030579;28;20163;-86
2022/06/15 09:42:03;;;;;;;8.07;1.65;;;;;;;38.83;22.73;100803.22;5031245;28;20032;-87
2022/06/15 09:45:02;;;;;;;9.52;1.73;;;;;;;39.74;20.40;100811.03;5029444;28;20030;-87
2022/06/15 09:47:40;;;;;;;4.90;1.77;;;;;;;37.06;24.05;100821.34;5030734;28;20045;-87
2022/06/15 09:50:05;;;;;;;7.68;1.60;;;;;;;37.71;23.05;100812.66;5029573;28;20152;-86
2022/06/15 09:52:42;;;;;;;4.97;1.23;;;;;;;38.59;22.14;100819.56;5018703;28;20140;-86
2022/06/15 09:55:35;;;;;;;3.45;1.40;;;;;;;38.77;22.36;100814.53;5030097;28;20033;-86
2022/06/15 09:58:01;;;;;;;2.95;1.17;;;;;;;40.58;20.23;100812.56;5031148;28;20112;-86
2022/06/15 10:00:27;;;;;;;4.60;1.70;;;;;;;40.24;22.30;100814.34;5030120;28;20436;-86
2022/06/15 10:02:59;;;;;;;6.97;1.63;;;;;;;41.42;19.35;100812.72;5031399;28;20060;-86
2022/06/15 10:05:32;;;;;;;6.18;1.50;;;;;;;40.98;20.06;100822.22;5028732;28;20026;-86
2022/06/15 10:08:01;;;;;;;4.93;1.75;;;;;;;40.79;20.43;100818.66;5012911;28;20480;-86
2022/06/15 10:10:34;;;;;;;6.72;1.30;;;;;;;40.57;19.71;100805.44;5031253;28;20037;-86
2022/06/15 10:13:19;;;;;;;11.85;1.90;;;;;;;40.39;19.75;100804.31;5031056;28;20364;-86
2022/06/15 10:15:52;;;;;;;5.20;1.42;;;;;;;40.36;20.88;100799.41;5019249;28;20030;-86
2022/06/15 10:18:35;;;;;;;6.78;3.22;;;;;;;40.83;20.80;100800.41;5031353;28;20036;-86
2022/06/15 10:21:14;;;;;;;4.75;1.30;;;;;;;39.42;21.89;100804.22;5029721;28;20022;-86
2022/06/15 10:23:58;;;;;;;5.90;2.13;;;;;;;40.55;20.21;100802.19;5018483;28;20033;-86
2022/06/15 10:26:38;;;;;;;6.22;1.65;;;;;;;40.39;19.98;100798.81;5011390;28;20052;-86
2022/06/15 10:29:22;;;;;;;5.22;1.50;;;;;;;38.50;22.09;100810.22;5013231;28;20026;-86
2022/06/15 10:32:07;;;;;;;9.75;2.10;;;;;;;38.87;22.28;100807.03;5014815;28;20467;-86
2022/06/15 10:34:48;;;;;;;3.42;1.60;;;;;;;36.48;23.46;100815.16;5014596;28;20034;-87
2022/06/15 10:37:23;;;;;;;4.97;1.60;;;;;;;38.51;22.18;100811.03;5025559;28;20072;-86
2022/06/15 10:39:51;;;;;;;3.92;1.20;;;;;;;39.80;20.60;100809.88;5027397;28;20022;-86
2022/06/15 10:42:21;;;;;;;5.55;1.20;;;;;;;40.54;20.18;100806.84;5014626;28;20375;-86
2022/06/15 10:44:59;;;;;;;;;;;;;;;40.34;20.26;100791.44;5018720;28;20044;-86
2022/06/15 10:47:38;;;;;;;4.65;1.45;;;;;;;40.46;20.10;100796.50;5034348;28;20008;-86
2022/06/15 10:50:16;;;;;;;4.95;1.48;;;;;;;41.14;19.37;100794.44;5034507;28;20425;-86
2022/06/15 10:52:48;;;;;;;9.40;1.40;;;;;;;41.61;19.52;100800.81;5034116;28;20060;-86
2022/06/15 11:02:16;;;;;;;5.63;1.30;;;;;;;38.09;22.79;100789.31;5033955;28;20041;-86
2022/06/15 11:04:20;;;;;;;2.67;1.10;;;;;;;36.16;23.74;100794.25;5037647;28;20038;-86
2022/06/15 11:07:05;;;;;;;5.05;1.52;;;;;;;35.23;24.14;100786.41;5033878;28;20395;-86
2022/06/15 11:10:02;;;;;;;3.42;1.38;;;;;;;38.25;22.18;100781.84;5034114;28;20029;-86
2022/06/15 11:12:37;;;;;;;6.03;1.35;;;;;;;36.83;23.91;100789.84;5033933;28;20480;-86
2022/06/15 11:18:01;;;;;;;4.30;1.45;;;;;;;37.86;23.19;100785.22;5033200;28;20033;-86
2022/06/15 11:18:32;;;;;;;5.00;1.40;;;;;;;37.07;22.79;100800.28;5033743;28;20039;-86
2022/06/15 11:21:13;;;;;;;5.43;1.20;;;;;;;38.43;20.88;100802.31;5033819;28;20031;-86
2022/06/15 11:23:55;;;;;;;4.68;0.95;;;;;;;39.99;20.01;100803.66;5034619;28;20032;-85
2022/06/15 11:29:30;;;;;;;4.03;1.10;;;;;;;37.36;23.00;100814.28;5032093;28;20049;-86
2022/06/15 11:32:01;;;;;;;4.43;1.27;;;;;;;38.53;22.62;100806.13;5018862;28;20044;-86
2022/06/15 11:34:29;;;;;;;;;;;;;;;38.59;20.83;100803.09;5033536;28;20029;-87
2022/06/15 11:37:03;;;;;;;4.03;1.05;;;;;;;37.00;22.44;100805.19;5032843;28;20409;-87
2022/06/15 11:39:43;;;;;;;9.38;1.08;;;;;;;37.58;22.92;100805.78;5033060;28;20493;-86
2022/06/15 11:42:12;;;;;;;4.93;1.42;;;;;;;38.08;21.67;100809.56;5033483;28;20029;-86
2022/06/15 11:44:42;;;;;;;4.45;1.77;;;;;;;37.25;22.35;100815.38;5033346;28;20025;-87
2022/06/15 11:47:20;;;;;;;;;;;;;;;38.48;20.44;100809.69;5033685;28;20017;-86
2022/06/15 11:50:00;;;;;;;3.40;0.80;;;;;;;38.38;20.57;100807.00;5034709;28;20363;-87
2022/06/15 11:52:41;;;;;;;6.95;1.25;;;;;;;37.80;22.06;100801.94;5032333;28;20434;-87
2022/06/15 11:55:25;;;;;;;7.63;1.00;;;;;;;37.99;22.60;100802.16;5033112;28;20040;-87
2022/06/15 11:58:25;;;;;;;5.93;1.48;;;;;;;38.53;21.87;100803.38;5033054;28;20030;-87
2022/06/15 12:01:08;;;;;;;5.82;1.35;;;;;;;36.09;24.82;100807.28;5029225;28;20029;-85